createdAt,value
2023-04-18T00:01:21.270Z,27.80
2023-04-18T00:03:49.694Z,27.80
2023-04-18T00:06:16.373Z,27.80
2023-04-18T00:08:42.900Z,27.80
2023-04-18T00:11:09.527Z,27.80
2023-04-18T00:13:38.323Z,27.80
2023-04-18T00:16:05.854Z,27.80
2023-04-18T00:18:32.925Z,27.70
2023-04-18T00:20:59.495Z,27.70
2023-04-18T00:23:28.177Z,27.70
2023-04-18T00:25:54.818Z,27.80
2023-04-18T00:28:21.385Z,27.70
2023-04-18T00:30:48.835Z,27.70
2023-04-18T00:33:15.704Z,27.60
2023-04-18T00:35:42.311Z,27.60
2023-04-18T00:38:08.961Z,27.70
2023-04-18T00:40:36.201Z,27.60
2023-04-18T00:43:03.143Z,27.60
2023-04-18T00:45:29.997Z,27.60
2023-04-18T00:47:57.114Z,27.60
2023-04-18T00:50:24.631Z,27.60
2023-04-18T00:52:51.982Z,27.60
2023-04-18T00:55:19.028Z,27.60
2023-04-18T00:57:45.917Z,27.60
2023-04-18T01:00:13.056Z,27.60
2023-04-18T01:02:40.121Z,27.50
2023-04-18T01:05:07.868Z,27.50
2023-04-18T01:07:37.272Z,27.50
2023-04-18T01:10:04.342Z,27.60
2023-04-18T01:12:31.216Z,27.50
2023-04-18T01:14:58.721Z,27.50
2023-04-18T01:17:25.354Z,27.50
2023-04-18T01:19:51.918Z,27.50
2023-04-18T01:22:19.972Z,27.40
2023-04-18T01:24:46.545Z,27.60
2023-04-18T01:27:13.751Z,27.40
2023-04-18T01:29:40.883Z,27.50
2023-04-18T01:32:07.987Z,27.40
2023-04-18T01:34:34.590Z,27.40
2023-04-18T01:37:01.145Z,27.40
2023-04-18T01:39:28.875Z,27.40
2023-04-18T01:41:55.473Z,27.40
2023-04-18T01:44:22.024Z,27.40
2023-04-18T01:46:48.614Z,27.40
2023-04-18T01:49:15.985Z,27.30
2023-04-18T01:51:43.214Z,27.40
2023-04-18T01:54:09.883Z,27.40
2023-04-18T01:56:36.454Z,27.40
2023-04-18T01:59:03.346Z,27.30
2023-04-18T02:01:30.048Z,27.40
2023-04-18T02:03:56.798Z,27.30
2023-04-18T02:06:23.423Z,27.30
2023-04-18T02:08:50.071Z,27.30
2023-04-18T02:11:16.632Z,27.30
2023-04-18T02:13:43.197Z,27.20
2023-04-18T02:16:13.769Z,27.30
2023-04-18T02:18:42.862Z,27.20
2023-04-18T02:21:11.080Z,27.20
2023-04-18T02:23:37.729Z,27.20
2023-04-18T02:26:04.328Z,27.20
2023-04-18T02:28:30.929Z,27.20
2023-04-18T02:30:59.284Z,27.20
2023-04-18T02:33:25.808Z,27.20
2023-04-18T02:35:52.433Z,27.20
2023-04-18T02:38:19.088Z,27.20
2023-04-18T02:40:45.623Z,27.20
2023-04-18T02:43:12.185Z,27.20
2023-04-18T02:45:39.097Z,27.10
2023-04-18T02:48:05.788Z,27.20
2023-04-18T02:50:32.379Z,27.10
2023-04-18T02:52:58.941Z,27.10
2023-04-18T02:55:26.872Z,27.10
2023-04-18T02:57:53.490Z,27.10
2023-04-18T03:00:20.271Z,27.10
2023-04-18T03:02:47.003Z,27.10
2023-04-18T03:05:13.682Z,27.10
2023-04-18T03:07:40.430Z,27.10
2023-04-18T03:10:07.387Z,27.10
2023-04-18T03:12:33.954Z,27.10
2023-04-18T03:15:00.502Z,27.00
2023-04-18T03:17:27.218Z,27.10
2023-04-18T03:19:53.839Z,27.00
2023-04-18T03:22:20.696Z,27.00
2023-04-18T03:24:48.273Z,27.00
2023-04-18T03:27:14.809Z,27.10
2023-04-18T03:29:41.560Z,27.00
2023-04-18T03:32:08.113Z,27.10
2023-04-18T03:34:34.697Z,27.00
2023-04-18T03:37:01.398Z,27.00
2023-04-18T03:39:28.002Z,27.00
2023-04-18T03:41:54.536Z,27.00
2023-04-18T03:44:21.366Z,27.00
2023-04-18T03:46:48.004Z,27.00
2023-04-18T03:49:14.597Z,27.00
2023-04-18T03:51:49.209Z,27.00
2023-04-18T03:54:16.973Z,27.00
2023-04-18T03:56:44.109Z,27.00
2023-04-18T03:59:11.384Z,27.00
2023-04-18T04:01:38.121Z,27.00
2023-04-18T04:04:04.917Z,27.10
2023-04-18T04:06:32.101Z,27.10
2023-04-18T04:08:58.702Z,27.20
2023-04-18T04:11:25.431Z,27.10
2023-04-18T04:13:52.183Z,27.20
2023-04-18T04:16:18.911Z,27.20
2023-04-18T04:18:45.523Z,27.30
2023-04-18T04:21:12.160Z,27.30
2023-04-18T04:23:38.711Z,27.30
2023-04-18T04:26:05.336Z,27.40
2023-04-18T04:28:32.049Z,27.50
2023-04-18T04:30:59.196Z,27.40
2023-04-18T04:33:28.626Z,27.40
2023-04-18T04:35:56.389Z,27.40
2023-04-18T04:38:23.021Z,27.50
2023-04-18T04:40:49.981Z,27.50
2023-04-18T04:43:16.962Z,27.60
2023-04-18T04:45:44.483Z,27.60
2023-04-18T04:48:11.287Z,27.60
2023-04-18T04:50:40.340Z,27.70
2023-04-18T04:53:07.631Z,27.60
2023-04-18T04:55:34.751Z,27.70
2023-04-18T04:58:01.284Z,27.70
2023-04-18T05:00:28.751Z,27.70
2023-04-18T05:02:56.878Z,27.70
2023-04-18T05:05:23.551Z,27.80
2023-04-18T05:07:50.328Z,27.80
2023-04-18T05:10:16.980Z,27.80
2023-04-18T05:12:43.663Z,27.90
2023-04-18T05:15:10.776Z,27.80
2023-04-18T05:17:37.419Z,27.90
2023-04-18T05:20:05.235Z,27.90
2023-04-18T05:22:32.449Z,27.90
2023-04-18T05:24:59.051Z,28.00
2023-04-18T05:27:26.573Z,28.00
2023-04-18T05:29:53.333Z,28.10
2023-04-18T05:32:19.985Z,28.00
2023-04-18T05:34:46.884Z,28.10
2023-04-18T05:37:13.565Z,28.00
2023-04-18T05:39:40.762Z,28.00
2023-04-18T05:42:07.594Z,28.10
2023-04-18T05:44:34.153Z,28.10
2023-04-18T05:47:00.903Z,28.10
2023-04-18T05:49:27.538Z,28.10
2023-04-18T05:51:54.186Z,28.10
2023-04-18T05:54:25.005Z,28.10
2023-04-18T05:56:51.801Z,28.20
2023-04-18T05:59:18.458Z,28.10
2023-04-18T06:01:45.009Z,28.20
2023-04-18T06:04:11.823Z,28.20
2023-04-18T06:06:38.795Z,28.10
2023-04-18T06:09:05.357Z,28.10
2023-04-18T06:11:35.577Z,28.10
2023-04-18T06:14:02.898Z,28.20
2023-04-18T06:16:29.667Z,28.10
2023-04-18T06:18:59.654Z,28.10
2023-04-18T06:21:27.761Z,28.20
2023-04-18T06:23:54.509Z,28.10
2023-04-18T06:26:21.612Z,28.20
2023-04-18T06:28:48.209Z,28.20
2023-04-18T06:31:14.798Z,28.20
2023-04-18T06:33:41.406Z,28.20
2023-04-18T06:36:08.835Z,28.20
2023-04-18T06:38:35.450Z,28.20
2023-04-18T06:41:02.208Z,28.20
2023-04-18T06:43:28.804Z,28.20
2023-04-18T06:45:56.587Z,28.20
2023-04-18T06:48:23.329Z,28.20
2023-04-18T06:50:49.952Z,28.30
2023-04-18T06:53:16.486Z,28.30
2023-04-18T06:55:43.098Z,28.30
2023-04-18T06:58:10.045Z,28.30
2023-04-18T07:00:36.620Z,28.30
2023-04-18T07:03:11.075Z,28.30
2023-04-18T07:05:41.026Z,28.10
2023-04-18T07:08:08.012Z,28.00
2023-04-18T07:10:34.734Z,27.80
2023-04-18T07:13:01.288Z,27.60
2023-04-18T07:15:27.999Z,27.40
2023-04-18T07:17:54.651Z,27.10
2023-04-18T07:20:21.415Z,26.90
2023-04-18T07:22:48.897Z,26.70
2023-04-18T07:25:15.658Z,26.70
2023-04-18T07:27:42.412Z,26.60
2023-04-18T07:30:09.579Z,26.50
2023-04-18T07:32:36.203Z,26.50
2023-04-18T07:35:03.369Z,26.60
2023-04-18T07:37:30.247Z,26.50
2023-04-18T07:39:56.886Z,26.60
2023-04-18T07:42:23.453Z,26.60
2023-04-18T07:44:50.006Z,26.60
2023-04-18T07:47:16.660Z,26.60
2023-04-18T07:49:43.473Z,26.70
2023-04-18T07:52:10.097Z,26.70
2023-04-18T07:54:36.667Z,26.70
2023-04-18T07:57:03.265Z,26.80
2023-04-18T07:59:29.901Z,26.80
2023-04-18T08:01:56.551Z,26.90
2023-04-18T08:04:23.300Z,26.90
2023-04-18T08:06:49.988Z,27.00
2023-04-18T08:09:16.848Z,27.00
2023-04-18T08:11:43.582Z,27.00
2023-04-18T08:14:10.358Z,27.10
2023-04-18T08:16:37.418Z,27.10
2023-04-18T08:19:04.038Z,27.20
2023-04-18T08:21:31.666Z,27.20
2023-04-18T08:23:59.540Z,27.20
2023-04-18T08:26:27.068Z,27.30
2023-04-18T08:28:53.614Z,27.30
2023-04-18T08:31:20.186Z,27.40
2023-04-18T08:33:46.774Z,27.40
2023-04-18T08:36:13.355Z,27.40
2023-04-18T08:38:39.990Z,27.50
2023-04-18T08:41:06.537Z,27.50
2023-04-18T08:43:33.173Z,27.60
2023-04-18T08:46:00.815Z,27.60
2023-04-18T08:48:28.179Z,27.70
2023-04-18T08:50:59.034Z,27.70
2023-04-18T08:53:26.766Z,27.70
2023-04-18T08:55:57.845Z,27.80
2023-04-18T08:58:26.921Z,27.90
2023-04-18T09:00:54.445Z,27.80
2023-04-18T09:03:40.572Z,27.90
2023-04-18T09:06:12.493Z,28.00
2023-04-18T09:08:40.882Z,28.00
2023-04-18T09:11:28.545Z,28.00
2023-04-18T09:13:58.835Z,28.10
2023-04-18T09:16:27.342Z,28.10
2023-04-18T09:19:14.597Z,28.10
2023-04-18T09:21:44.279Z,28.20
2023-04-18T09:24:20.768Z,28.20
2023-04-18T09:26:49.681Z,28.20
2023-04-18T09:29:18.415Z,28.30
2023-04-18T09:32:00.768Z,28.30
2023-04-18T09:34:33.836Z,28.30
2023-04-18T09:37:10.601Z,28.40
2023-04-18T09:39:39.205Z,28.40
2023-04-18T09:42:06.183Z,28.50
2023-04-18T09:44:32.769Z,28.60
2023-04-18T09:46:59.514Z,28.60
2023-04-18T09:49:26.905Z,28.60
2023-04-18T09:51:56.591Z,28.60
2023-04-18T09:54:24.778Z,28.60
2023-04-18T09:56:53.941Z,28.70
2023-04-18T09:59:50.717Z,28.70
2023-04-18T10:02:23.014Z,28.70
2023-04-18T10:04:51.620Z,28.70
2023-04-18T10:07:18.727Z,28.70
2023-04-18T10:09:46.671Z,28.80
2023-04-18T10:12:14.191Z,28.80
2023-04-18T10:14:43.190Z,28.80
2023-04-18T10:17:10.983Z,28.90
2023-04-18T10:19:41.984Z,28.90
2023-04-18T10:22:08.705Z,29.10
2023-04-18T10:24:56.072Z,29.10
2023-04-18T10:27:56.486Z,29.30
2023-04-18T10:30:46.169Z,29.40
2023-04-18T10:33:31.039Z,29.50
2023-04-18T10:36:06.268Z,29.60
2023-04-18T10:38:33.827Z,29.70
2023-04-18T10:41:13.780Z,29.80
2023-04-18T10:44:14.445Z,29.70
2023-04-18T10:46:50.821Z,29.70
2023-04-18T10:49:24.030Z,29.70
2023-04-18T10:52:00.237Z,29.70
2023-04-18T10:54:37.789Z,29.70
2023-04-18T10:57:05.704Z,29.60
2023-04-18T10:59:34.304Z,29.70
2023-04-18T11:02:19.779Z,29.70
2023-04-18T11:04:51.326Z,29.60
2023-04-18T11:07:18.056Z,29.60
2023-04-18T11:09:54.844Z,29.60
2023-04-18T11:12:21.457Z,29.60
2023-04-18T11:14:54.280Z,29.60
2023-04-18T11:17:23.770Z,29.60
2023-04-18T11:19:51.700Z,29.60
2023-04-18T11:22:18.943Z,29.70
2023-04-18T11:24:45.592Z,29.70
2023-04-18T11:27:12.743Z,29.60
2023-04-18T11:29:39.411Z,29.60
2023-04-18T11:32:07.430Z,29.60
2023-04-18T11:34:35.515Z,29.60
2023-04-18T11:37:06.275Z,29.70
2023-04-18T11:39:43.070Z,29.60
2023-04-18T11:42:10.061Z,29.60
2023-04-18T11:44:39.594Z,29.60
2023-04-18T11:47:26.453Z,29.70
2023-04-18T11:49:57.335Z,29.70
2023-04-18T11:52:24.569Z,29.70
2023-04-18T11:54:51.286Z,29.70
2023-04-18T11:57:22.264Z,29.70
2023-04-18T11:59:57.271Z,29.80
2023-04-18T12:02:26.390Z,29.70
2023-04-18T12:04:58.699Z,29.80
2023-04-18T12:07:41.545Z,29.70
2023-04-18T12:10:23.950Z,29.80
2023-04-18T12:12:52.239Z,29.70
2023-04-18T12:15:19.761Z,29.80
2023-04-18T12:17:54.469Z,29.80
2023-04-18T12:20:24.652Z,29.80
2023-04-18T12:22:52.126Z,29.80
2023-04-18T12:25:26.209Z,29.90
2023-04-18T12:28:03.621Z,29.90
2023-04-18T12:30:30.758Z,29.90
2023-04-18T12:33:02.061Z,29.90
2023-04-18T12:35:30.631Z,29.90
2023-04-18T12:37:59.160Z,29.90
2023-04-18T12:40:26.698Z,30.00
2023-04-18T12:42:54.372Z,29.90
2023-04-18T12:45:22.133Z,30.00
2023-04-18T12:47:49.891Z,30.00
2023-04-18T12:50:18.632Z,30.00
2023-04-18T12:52:46.155Z,30.00
2023-04-18T12:55:13.676Z,30.10
2023-04-18T12:57:42.009Z,30.00
2023-04-18T13:00:13.385Z,30.00
2023-04-18T13:02:42.963Z,30.10
2023-04-18T13:05:11.752Z,30.20
2023-04-18T13:07:40.392Z,30.10
2023-04-18T13:10:12.773Z,30.20
2023-04-18T13:12:40.692Z,30.20
2023-04-18T13:15:10.708Z,30.20
2023-04-18T13:17:40.643Z,30.20
2023-04-18T13:20:12.329Z,30.20
2023-04-18T13:22:40.074Z,30.30
2023-04-18T13:25:08.124Z,30.30
2023-04-18T13:27:34.700Z,30.30
2023-04-18T13:30:01.316Z,30.20
2023-04-18T13:32:27.992Z,30.20
2023-04-18T13:34:56.018Z,30.30
2023-04-18T13:37:23.474Z,30.30
2023-04-18T13:39:50.100Z,30.20
2023-04-18T13:42:18.438Z,30.30
2023-04-18T13:44:46.110Z,30.20
2023-04-18T13:47:12.717Z,30.20
2023-04-18T13:49:39.271Z,30.20
2023-04-18T13:52:05.853Z,30.20
2023-04-18T13:54:32.876Z,30.20
2023-04-18T13:57:04.434Z,30.20
2023-04-18T13:59:32.652Z,30.20
2023-04-18T14:01:59.555Z,30.20
2023-04-18T14:04:27.226Z,30.30
2023-04-18T14:06:55.015Z,30.30
2023-04-18T14:09:21.595Z,30.30
2023-04-18T14:11:48.378Z,30.40
2023-04-18T14:14:15.091Z,30.40
2023-04-18T14:16:41.707Z,30.50
2023-04-18T14:19:08.393Z,30.50
2023-04-18T14:21:35.029Z,30.50
2023-04-18T14:24:01.667Z,30.50
2023-04-18T14:26:28.224Z,30.50
2023-04-18T14:28:54.844Z,30.60
2023-04-18T14:31:22.154Z,30.60
2023-04-18T14:33:48.759Z,30.70
2023-04-18T14:36:16.873Z,30.60
2023-04-18T14:38:46.568Z,30.70
2023-04-18T14:41:13.131Z,30.70
2023-04-18T14:43:39.746Z,30.70
2023-04-18T14:46:13.685Z,30.80
2023-04-18T14:48:40.305Z,30.70
2023-04-18T14:51:07.665Z,30.70
2023-04-18T14:53:34.357Z,30.70
2023-04-18T14:56:01.081Z,30.70
2023-04-18T14:58:27.598Z,30.70
2023-04-18T15:00:54.151Z,30.70
2023-04-18T15:03:20.948Z,30.80
2023-04-18T15:05:48.832Z,30.80
2023-04-18T15:08:16.098Z,30.80
2023-04-18T15:10:42.841Z,30.80
2023-04-18T15:13:10.919Z,30.80
2023-04-18T15:15:39.503Z,30.80
2023-04-18T15:18:07.999Z,30.80
2023-04-18T15:20:36.818Z,30.80
2023-04-18T15:23:03.489Z,30.70
2023-04-18T15:25:30.887Z,30.70
2023-04-18T15:27:58.344Z,30.70
2023-04-18T15:30:25.419Z,30.70
2023-04-18T15:32:53.827Z,30.70
2023-04-18T15:35:20.823Z,30.70
2023-04-18T15:37:47.445Z,30.70
2023-04-18T15:40:16.158Z,30.70
2023-04-18T15:42:43.594Z,30.70
2023-04-18T15:45:11.035Z,30.70
2023-04-18T15:47:38.806Z,30.70
2023-04-18T15:50:06.834Z,30.70
2023-04-18T15:52:33.597Z,30.70
2023-04-18T15:55:00.670Z,30.70
2023-04-18T15:57:29.612Z,30.70
2023-04-18T15:59:56.632Z,30.60
2023-04-18T16:02:23.294Z,30.70
2023-04-18T16:04:49.996Z,30.60
2023-04-18T16:07:16.832Z,30.60
2023-04-18T16:09:43.423Z,30.60
2023-04-18T16:12:09.980Z,30.60
2023-04-18T16:14:36.566Z,30.60
2023-04-18T16:17:03.591Z,30.60
2023-04-18T16:19:30.343Z,30.60
2023-04-18T16:21:57.555Z,30.60
2023-04-18T16:24:25.523Z,30.60
2023-04-18T16:26:53.456Z,30.50
2023-04-18T16:29:20.258Z,30.50
2023-04-18T16:31:47.716Z,30.50
2023-04-18T16:34:15.731Z,30.50
2023-04-18T16:36:42.507Z,30.40
2023-04-18T16:39:09.086Z,30.40
2023-04-18T16:41:35.612Z,30.40
2023-04-18T16:44:02.268Z,30.40
2023-04-18T16:46:32.343Z,30.40
2023-04-18T16:49:01.309Z,30.40
2023-04-18T16:51:28.786Z,30.30
2023-04-18T16:53:55.676Z,30.30
2023-04-18T16:56:22.214Z,30.30
2023-04-18T16:58:48.759Z,30.30
2023-04-18T17:01:15.522Z,30.20
2023-04-18T17:03:42.672Z,30.20
2023-04-18T17:06:09.227Z,30.20
2023-04-18T17:08:35.977Z,30.20
2023-04-18T17:11:02.736Z,30.10
2023-04-18T17:13:31.340Z,30.10
2023-04-18T17:15:58.350Z,30.10
2023-04-18T17:18:25.124Z,30.10
2023-04-18T17:20:52.118Z,30.20
2023-04-18T17:23:18.748Z,30.10
2023-04-18T17:25:46.022Z,30.10
2023-04-18T17:28:13.738Z,30.10
2023-04-18T17:30:41.862Z,30.10
2023-04-18T17:33:09.731Z,30.10
2023-04-18T17:35:36.307Z,30.10
2023-04-18T17:38:03.294Z,30.10
2023-04-18T17:40:30.010Z,30.10
2023-04-18T17:42:56.716Z,30.10
2023-04-18T17:45:23.970Z,30.10
2023-04-18T17:47:50.837Z,30.10
2023-04-18T17:50:17.711Z,30.10
2023-04-18T17:52:46.218Z,30.10
2023-04-18T17:55:12.972Z,30.10
2023-04-18T17:57:39.558Z,30.10
2023-04-18T18:00:10.339Z,30.10
2023-04-18T18:02:37.359Z,30.00
2023-04-18T18:05:05.355Z,30.00
2023-04-18T18:07:34.818Z,30.00
2023-04-18T18:10:02.300Z,30.00
2023-04-18T18:12:28.993Z,30.00
2023-04-18T18:14:57.185Z,30.00
2023-04-18T18:17:24.397Z,30.00
2023-04-18T18:19:50.997Z,30.00
2023-04-18T18:22:17.808Z,30.00
2023-04-18T18:24:45.392Z,29.90
2023-04-18T18:27:12.037Z,30.00
2023-04-18T18:29:38.629Z,30.00
2023-04-18T18:32:05.761Z,29.90
2023-04-18T18:34:32.304Z,29.80
2023-04-18T18:36:58.889Z,29.90
2023-04-18T18:39:25.468Z,29.90
2023-04-18T18:41:52.191Z,29.80
2023-04-18T18:44:19.252Z,29.80
2023-04-18T18:46:45.876Z,29.80
2023-04-18T18:49:12.540Z,29.80
2023-04-18T18:51:40.823Z,29.70
2023-04-18T18:54:07.425Z,29.70
2023-04-18T18:56:33.971Z,29.70
2023-04-18T18:59:00.578Z,29.70
2023-04-18T19:01:28.612Z,29.60
2023-04-18T19:03:55.569Z,29.60
2023-04-18T19:06:22.273Z,29.50
2023-04-18T19:08:48.830Z,29.50
2023-04-18T19:11:16.145Z,29.40
2023-04-18T19:13:42.763Z,29.40
2023-04-18T19:16:09.375Z,29.40
2023-04-18T19:18:36.041Z,29.30
2023-04-18T19:21:04.204Z,29.20
2023-04-18T19:23:31.096Z,29.20
2023-04-18T19:25:57.875Z,29.10
2023-04-18T19:28:25.710Z,29.10
2023-04-18T19:30:52.966Z,29.00
2023-04-18T19:33:20.086Z,29.00
2023-04-18T19:35:46.713Z,29.00
2023-04-18T19:38:13.260Z,28.90
2023-04-18T19:40:39.793Z,28.90
2023-04-18T19:43:06.378Z,28.80
2023-04-18T19:45:32.953Z,28.80
2023-04-18T19:48:00.210Z,28.70
2023-04-18T19:50:26.952Z,28.80
2023-04-18T19:52:53.519Z,28.70
2023-04-18T19:55:20.140Z,28.60
2023-04-18T19:57:48.046Z,28.60
2023-04-18T20:00:15.271Z,28.60
2023-04-18T20:02:42.222Z,28.50
2023-04-18T20:05:10.091Z,28.50
2023-04-18T20:07:36.957Z,28.50
2023-04-18T20:10:04.476Z,28.50
2023-04-18T20:12:31.324Z,28.40
2023-04-18T20:14:58.826Z,28.60
2023-04-18T20:17:26.178Z,28.40
2023-04-18T20:19:53.287Z,28.40
2023-04-18T20:22:19.856Z,28.50
2023-04-18T20:24:48.046Z,28.40
2023-04-18T20:27:15.187Z,28.50
2023-04-18T20:29:41.843Z,28.40
2023-04-18T20:32:08.525Z,28.40
2023-04-18T20:34:35.758Z,28.40
2023-04-18T20:37:02.299Z,28.40
2023-04-18T20:39:28.978Z,28.40
2023-04-18T20:41:57.383Z,28.40
2023-04-18T20:44:24.657Z,28.40
2023-04-18T20:46:54.614Z,28.30
2023-04-18T20:49:21.248Z,28.40
2023-04-18T20:51:47.840Z,28.30
2023-04-18T20:54:14.739Z,28.30
2023-04-18T20:56:41.542Z,28.40
2023-04-18T20:59:08.144Z,28.30
2023-04-18T21:01:36.939Z,28.30
2023-04-18T21:04:04.006Z,28.30
2023-04-18T21:06:30.877Z,28.30
2023-04-18T21:08:57.519Z,28.30
2023-04-18T21:11:24.070Z,28.20
2023-04-18T21:13:50.766Z,28.30
2023-04-18T21:16:17.487Z,28.20
2023-04-18T21:18:44.149Z,28.20
2023-04-18T21:21:11.609Z,28.20
2023-04-18T21:23:44.596Z,28.20
2023-04-18T21:26:12.969Z,28.30
2023-04-18T21:28:59.068Z,28.20
2023-04-18T21:31:27.158Z,28.20
2023-04-18T21:33:57.908Z,28.20
2023-04-18T21:36:27.019Z,28.20
2023-04-18T21:38:54.735Z,28.20
2023-04-18T21:41:21.705Z,28.20
2023-04-18T21:43:48.831Z,28.20
2023-04-18T21:46:16.102Z,28.10
2023-04-18T21:48:45.293Z,28.20
2023-04-18T21:51:15.569Z,28.10
2023-04-18T21:53:42.659Z,28.20
2023-04-18T21:56:09.401Z,28.10
2023-04-18T21:58:35.958Z,28.20
2023-04-18T22:01:02.880Z,28.10
2023-04-18T22:03:29.708Z,28.10
2023-04-18T22:05:56.746Z,28.10
2023-04-18T22:08:25.677Z,28.10
2023-04-18T22:10:57.534Z,28.10
2023-04-18T22:13:25.235Z,28.00
2023-04-18T22:15:51.945Z,28.00
2023-04-18T22:18:19.150Z,28.00
2023-04-18T22:20:46.789Z,28.00
2023-04-18T22:23:13.667Z,28.00
2023-04-18T22:25:40.764Z,28.00
2023-04-18T22:28:07.408Z,28.00
2023-04-18T22:30:34.033Z,28.00
2023-04-18T22:33:00.677Z,28.00
2023-04-18T22:35:27.291Z,28.00
2023-04-18T22:37:54.806Z,27.90
2023-04-18T22:40:21.850Z,27.90
2023-04-18T22:42:48.438Z,27.90
2023-04-18T22:45:15.405Z,27.90
2023-04-18T22:47:42.070Z,27.90
2023-04-18T22:50:08.868Z,27.90
2023-04-18T22:52:35.592Z,27.80
2023-04-18T22:55:02.917Z,28.00
2023-04-18T22:57:29.638Z,27.90
2023-04-18T22:59:56.417Z,27.90
2023-04-18T23:02:23.153Z,27.90
2023-04-18T23:04:50.367Z,27.80
2023-04-18T23:07:17.117Z,27.80
2023-04-18T23:09:43.721Z,27.90
2023-04-18T23:12:10.326Z,27.80
2023-04-18T23:14:37.075Z,27.80
2023-04-18T23:17:03.665Z,27.80
2023-04-18T23:19:30.234Z,27.80
2023-04-18T23:21:56.812Z,27.80
2023-04-18T23:24:23.361Z,27.80
2023-04-18T23:26:49.951Z,27.80
2023-04-18T23:29:16.649Z,27.70
2023-04-18T23:31:43.442Z,27.80
2023-04-18T23:34:10.543Z,27.70
2023-04-18T23:36:37.258Z,27.70
2023-04-18T23:39:04.250Z,27.70
2023-04-18T23:41:30.958Z,27.70
2023-04-18T23:43:57.550Z,27.70
2023-04-18T23:46:24.252Z,27.70
2023-04-18T23:48:52.010Z,27.70
2023-04-18T23:51:19.142Z,27.70
2023-04-18T23:53:45.736Z,27.70
2023-04-18T23:56:12.314Z,27.70
2023-04-18T23:58:38.866Z,27.70
